createdAt,value
2023-02-12T00:01:19.607Z,3.40
2023-02-12T00:03:48.280Z,3.40
2023-02-12T00:06:16.671Z,3.40
2023-02-12T00:08:45.031Z,3.40
2023-02-12T00:11:15.038Z,3.40
2023-02-12T00:13:44.148Z,3.40
2023-02-12T00:16:15.525Z,3.40
2023-02-12T00:18:45.999Z,3.30
2023-02-12T00:21:15.089Z,3.30
2023-02-12T00:23:43.458Z,3.30
2023-02-12T00:26:13.244Z,3.30
2023-02-12T00:28:42.055Z,3.30
2023-02-12T00:31:12.622Z,3.30
2023-02-12T00:33:41.333Z,3.30
2023-02-12T00:36:14.432Z,3.30
2023-02-12T00:38:43.260Z,3.20
2023-02-12T00:41:12.177Z,3.20
2023-02-12T00:43:40.575Z,3.20
2023-02-12T00:46:09.162Z,3.20
2023-02-12T00:48:38.439Z,3.20
2023-02-12T00:51:07.761Z,3.20
2023-02-12T00:53:37.755Z,3.20
2023-02-12T00:56:06.568Z,3.20
2023-02-12T00:58:34.979Z,3.20
2023-02-12T01:01:03.284Z,3.20
2023-02-12T01:03:31.595Z,3.20
2023-02-12T01:05:59.978Z,3.20
2023-02-12T01:08:28.364Z,3.20
2023-02-12T01:11:01.305Z,3.20
2023-02-12T01:13:30.497Z,3.20
2023-02-12T01:16:08.819Z,3.20
2023-02-12T01:18:37.706Z,3.20
2023-02-12T01:21:11.619Z,3.20
2023-02-12T01:23:39.995Z,3.20
2023-02-12T01:26:11.684Z,3.20
2023-02-12T01:28:40.451Z,3.20
2023-02-12T01:31:13.217Z,3.20
2023-02-12T01:33:42.340Z,3.20
2023-02-12T01:36:12.406Z,3.20
2023-02-12T01:38:40.802Z,3.20
2023-02-12T01:41:12.982Z,3.20
2023-02-12T01:43:41.541Z,3.10
2023-02-12T01:46:11.735Z,3.20
2023-02-12T01:48:43.414Z,3.20
2023-02-12T01:51:16.017Z,3.20
2023-02-12T01:53:48.338Z,3.20
2023-02-12T01:56:18.800Z,3.20
2023-02-12T01:58:49.199Z,3.30
2023-02-12T02:01:21.524Z,3.30
2023-02-12T02:03:53.582Z,3.30
2023-02-12T02:06:27.648Z,3.30
2023-02-12T02:08:57.365Z,3.30
2023-02-12T02:11:44.565Z,3.30
2023-02-12T02:14:30.165Z,3.30
2023-02-12T02:17:17.385Z,3.30
2023-02-12T02:20:11.998Z,3.30
2023-02-12T02:22:44.861Z,3.40
2023-02-12T02:25:37.566Z,3.40
2023-02-12T02:28:24.418Z,3.40
2023-02-12T02:30:59.417Z,3.40
2023-02-12T02:33:38.711Z,3.40
2023-02-12T02:36:24.871Z,3.40
2023-02-12T02:38:58.435Z,3.40
2023-02-12T02:41:32.300Z,3.40
2023-02-12T02:44:04.787Z,3.50
2023-02-12T02:46:38.522Z,3.40
2023-02-12T02:49:08.915Z,3.50
2023-02-12T02:51:41.582Z,3.50
2023-02-12T02:54:15.106Z,3.50
2023-02-12T02:56:48.832Z,3.50
2023-02-12T02:59:21.261Z,3.40
2023-02-12T03:01:56.055Z,3.40
2023-02-12T03:04:32.506Z,3.40
2023-02-12T03:07:07.348Z,3.40
2023-02-12T03:09:39.978Z,3.40
2023-02-12T03:12:14.483Z,3.40
2023-02-12T03:14:46.360Z,3.40
2023-02-12T03:17:22.033Z,3.40
2023-02-12T03:19:56.526Z,3.50
2023-02-12T03:22:29.641Z,3.50
2023-02-12T03:25:04.840Z,3.50
2023-02-12T03:27:36.174Z,3.50
2023-02-12T03:30:05.530Z,3.50
2023-02-12T03:32:44.966Z,3.50
2023-02-12T03:35:20.387Z,3.50
2023-02-12T03:37:57.175Z,3.50
2023-02-12T03:40:34.184Z,3.50
2023-02-12T03:43:08.114Z,3.60
2023-02-12T03:45:45.037Z,3.60
2023-02-12T03:48:23.526Z,3.60
2023-02-12T03:50:55.931Z,3.70
2023-02-12T03:53:24.556Z,3.60
2023-02-12T03:55:58.447Z,3.70
2023-02-12T03:58:30.651Z,3.80
2023-02-12T04:00:59.824Z,3.80
2023-02-12T04:03:30.830Z,3.80
2023-02-12T04:05:59.356Z,3.80
2023-02-12T04:08:29.682Z,3.80
2023-02-12T04:11:09.062Z,3.80
2023-02-12T04:13:46.434Z,3.80
2023-02-12T04:16:23.772Z,3.80
2023-02-12T04:18:54.698Z,3.80
2023-02-12T04:21:36.522Z,3.80
2023-02-12T04:24:12.753Z,3.80
2023-02-12T04:26:49.042Z,3.80
2023-02-12T04:29:24.683Z,3.80
2023-02-12T04:31:59.345Z,3.80
2023-02-12T04:34:34.123Z,3.80
2023-02-12T04:37:08.938Z,3.90
2023-02-12T04:39:41.018Z,3.90
2023-02-12T04:42:09.766Z,3.90
2023-02-12T04:44:43.307Z,4.00
2023-02-12T04:47:13.285Z,4.00
2023-02-12T04:49:43.494Z,4.00
2023-02-12T04:52:11.791Z,4.00
2023-02-12T04:54:40.228Z,4.00
2023-02-12T04:57:08.558Z,4.00
2023-02-12T04:59:36.858Z,4.10
2023-02-12T05:02:05.208Z,4.10
2023-02-12T05:04:33.505Z,4.10
2023-02-12T05:07:03.221Z,4.20
2023-02-12T05:09:31.589Z,4.20
2023-02-12T05:11:59.863Z,4.20
2023-02-12T05:14:28.207Z,4.20
2023-02-12T05:16:56.534Z,4.20
2023-02-12T05:19:24.813Z,4.20
2023-02-12T05:21:53.199Z,4.20
2023-02-12T05:24:22.902Z,4.20
2023-02-12T05:26:52.744Z,4.30
2023-02-12T05:29:21.544Z,4.30
2023-02-12T05:31:50.007Z,4.30
2023-02-12T05:34:18.402Z,4.30
2023-02-12T05:36:46.702Z,4.30
2023-02-12T05:39:15.022Z,4.30
2023-02-12T05:41:44.821Z,4.30
2023-02-12T05:44:15.219Z,4.40
2023-02-12T05:46:43.992Z,4.40
2023-02-12T05:49:12.658Z,4.40
2023-02-12T05:51:41.427Z,4.40
2023-02-12T05:54:10.106Z,4.50
2023-02-12T05:56:43.212Z,4.50
2023-02-12T05:59:16.966Z,4.50
2023-02-12T06:01:46.663Z,4.60
2023-02-12T06:04:18.630Z,4.60
2023-02-12T06:06:47.137Z,4.60
2023-02-12T06:09:15.697Z,4.70
2023-02-12T06:11:44.586Z,4.70
2023-02-12T06:14:16.505Z,4.70
2023-02-12T06:16:47.666Z,4.80
2023-02-12T06:19:16.134Z,4.80
2023-02-12T06:21:54.219Z,4.80
2023-02-12T06:24:22.562Z,4.90
2023-02-12T06:26:51.936Z,4.90
2023-02-12T06:29:22.300Z,4.90
2023-02-12T06:31:51.216Z,5.00
2023-02-12T06:34:19.666Z,5.00
2023-02-12T06:36:49.340Z,5.00
2023-02-12T06:39:18.287Z,5.10
2023-02-12T06:41:46.572Z,5.10
2023-02-12T06:44:14.944Z,5.20
2023-02-12T06:46:44.626Z,5.20
2023-02-12T06:49:14.311Z,5.30
2023-02-12T06:51:42.810Z,5.30
2023-02-12T06:54:15.954Z,5.40
2023-02-12T06:56:44.355Z,5.40
2023-02-12T06:59:16.422Z,5.40
2023-02-12T07:01:46.335Z,5.50
2023-02-12T07:04:14.905Z,5.50
2023-02-12T07:06:43.294Z,5.60
2023-02-12T07:09:11.587Z,5.70
2023-02-12T07:11:40.133Z,5.70
2023-02-12T07:14:08.897Z,5.80
2023-02-12T07:16:37.272Z,5.90
2023-02-12T07:19:07.002Z,5.90
2023-02-12T07:21:35.319Z,5.90
2023-02-12T07:24:22.144Z,5.90
2023-02-12T07:26:50.462Z,6.00
2023-02-12T07:29:18.761Z,6.00
2023-02-12T07:31:47.301Z,6.00
2023-02-12T07:34:17.049Z,6.10
2023-02-12T07:36:45.355Z,6.20
2023-02-12T07:39:14.244Z,6.20
2023-02-12T07:41:42.582Z,6.30
2023-02-12T07:44:13.317Z,6.40
2023-02-12T07:46:44.531Z,6.40
2023-02-12T07:49:17.679Z,6.50
2023-02-12T07:51:46.270Z,6.60
2023-02-12T07:54:15.233Z,6.60
2023-02-12T07:56:47.117Z,6.70
2023-02-12T07:59:18.085Z,6.80
2023-02-12T08:01:49.262Z,6.90
2023-02-12T08:04:20.406Z,6.90
2023-02-12T08:06:50.430Z,7.00
2023-02-12T08:09:21.398Z,7.00
2023-02-12T08:11:50.057Z,7.10
2023-02-12T08:14:20.390Z,7.20
2023-02-12T08:16:49.960Z,7.30
2023-02-12T08:19:23.957Z,7.40
2023-02-12T08:21:56.076Z,7.50
2023-02-12T08:24:25.135Z,7.60
2023-02-12T08:26:53.470Z,7.70
2023-02-12T08:29:24.277Z,7.80
2023-02-12T08:31:57.324Z,7.90
2023-02-12T08:34:28.871Z,8.00
2023-02-12T08:36:58.022Z,8.10
2023-02-12T08:39:27.920Z,8.10
2023-02-12T08:41:56.914Z,8.20
2023-02-12T08:44:25.255Z,8.30
2023-02-12T08:46:55.673Z,8.30
2023-02-12T08:49:27.878Z,8.30
2023-02-12T08:51:58.088Z,8.40
2023-02-12T08:54:28.081Z,8.50
2023-02-12T08:56:56.779Z,8.50
2023-02-12T08:59:25.451Z,8.60
2023-02-12T09:01:55.200Z,8.60
2023-02-12T09:04:28.020Z,8.70
2023-02-12T09:06:57.046Z,8.70
2023-02-12T09:09:25.550Z,8.80
2023-02-12T09:11:53.928Z,8.80
2023-02-12T09:14:24.406Z,8.80
2023-02-12T09:16:54.298Z,8.80
2023-02-12T09:19:23.368Z,8.80
2023-02-12T09:21:57.048Z,8.80
2023-02-12T09:24:26.226Z,8.80
2023-02-12T09:26:54.626Z,8.80
2023-02-12T09:29:22.956Z,8.80
2023-02-12T09:31:51.453Z,8.90
2023-02-12T09:34:19.989Z,8.90
2023-02-12T09:36:48.314Z,8.90
2023-02-12T09:39:18.127Z,8.90
2023-02-12T09:42:16.857Z,8.90
2023-02-12T09:44:51.064Z,8.90
2023-02-12T09:47:27.766Z,8.90
2023-02-12T09:50:12.115Z,9.00
2023-02-12T09:52:40.946Z,9.00
2023-02-12T09:55:15.544Z,9.00
2023-02-12T09:57:44.518Z,9.00
2023-02-12T10:00:17.864Z,9.10
2023-02-12T10:02:46.883Z,9.10
2023-02-12T10:05:19.969Z,9.10
2023-02-12T10:08:05.891Z,9.20
2023-02-12T10:10:47.875Z,9.20
2023-02-12T10:13:28.437Z,9.30
2023-02-12T10:16:07.778Z,9.30
2023-02-12T10:19:04.807Z,9.40
2023-02-12T10:21:47.994Z,9.40
2023-02-12T10:24:34.631Z,9.40
2023-02-12T10:27:12.131Z,9.40
2023-02-12T10:29:43.850Z,9.40
2023-02-12T10:32:20.885Z,9.50
2023-02-12T10:34:52.485Z,9.50
2023-02-12T10:37:32.566Z,9.60
2023-02-12T10:40:07.334Z,9.60
2023-02-12T10:42:41.743Z,9.60
2023-02-12T10:45:16.259Z,9.70
2023-02-12T10:47:45.668Z,9.80
2023-02-12T10:50:21.041Z,9.70
2023-02-12T10:52:55.064Z,9.80
2023-02-12T10:55:29.047Z,9.90
2023-02-12T10:58:00.849Z,9.90
2023-02-12T11:00:32.298Z,9.90
2023-02-12T11:03:07.132Z,10.00
2023-02-12T11:05:37.255Z,10.10
2023-02-12T11:08:06.373Z,10.10
2023-02-12T11:10:39.470Z,10.10
2023-02-12T11:13:25.388Z,10.10
2023-02-12T11:15:54.474Z,10.20
2023-02-12T11:18:26.545Z,10.10
2023-02-12T11:20:58.466Z,10.20
2023-02-12T11:23:29.452Z,10.20
2023-02-12T11:26:00.695Z,10.20
2023-02-12T11:28:31.368Z,10.10
2023-02-12T11:31:02.591Z,10.20
2023-02-12T11:33:34.722Z,10.10
2023-02-12T11:36:13.428Z,10.20
2023-02-12T11:38:51.263Z,10.20
2023-02-12T11:41:28.561Z,10.20
2023-02-12T11:43:58.584Z,10.20
2023-02-12T11:46:29.242Z,10.20
2023-02-12T11:49:00.860Z,10.30
2023-02-12T11:51:31.795Z,10.40
2023-02-12T11:54:02.347Z,10.40
2023-02-12T11:56:44.188Z,10.50
2023-02-12T11:59:26.025Z,10.50
2023-02-12T12:01:57.946Z,10.60
2023-02-12T12:04:28.181Z,10.70
2023-02-12T12:07:02.357Z,10.70
2023-02-12T12:09:38.605Z,10.80
2023-02-12T12:12:13.695Z,10.80
2023-02-12T12:15:04.822Z,10.90
2023-02-12T12:18:03.757Z,10.90
2023-02-12T12:20:38.132Z,10.80
2023-02-12T12:23:11.263Z,11.00
2023-02-12T12:25:48.409Z,11.10
2023-02-12T12:28:33.300Z,11.20
2023-02-12T12:31:09.365Z,11.30
2023-02-12T12:33:44.510Z,11.40
2023-02-12T12:36:47.565Z,11.40
2023-02-12T12:39:25.485Z,11.40
2023-02-12T12:42:34.939Z,11.40
2023-02-12T12:45:17.645Z,11.50
2023-02-12T12:48:01.534Z,11.50
2023-02-12T12:50:43.285Z,11.60
2023-02-12T12:53:30.272Z,11.60
2023-02-12T12:56:17.589Z,11.70
2023-02-12T12:59:32.094Z,11.70
2023-02-12T13:02:52.786Z,11.90
2023-02-12T13:05:52.192Z,12.00
2023-02-12T13:08:37.984Z,12.10
2023-02-12T13:11:22.424Z,12.30
2023-02-12T13:14:22.147Z,12.30
2023-02-12T13:16:56.071Z,12.40
2023-02-12T13:19:37.250Z,12.50
2023-02-12T13:22:12.151Z,12.50
2023-02-12T13:24:46.819Z,12.50
2023-02-12T13:27:19.881Z,12.70
2023-02-12T13:29:52.939Z,13.00
2023-02-12T13:32:27.120Z,13.30
2023-02-12T13:34:57.445Z,13.70
2023-02-12T13:38:01.920Z,14.10
2023-02-12T13:43:39.129Z,14.90
2023-02-12T13:46:14.475Z,15.30
2023-02-12T13:48:50.753Z,15.70
2023-02-12T13:51:30.007Z,16.10
2023-02-12T13:54:12.034Z,17.10
2023-02-12T13:56:44.007Z,16.60
2023-02-12T13:59:47.434Z,16.80
2023-02-12T14:02:52.139Z,18.50
2023-02-12T14:05:29.732Z,19.40
2023-02-12T14:08:01.958Z,19.80
2023-02-12T14:10:36.222Z,19.60
2023-02-12T14:13:18.947Z,19.30
2023-02-12T14:15:51.263Z,19.30
2023-02-12T14:18:38.157Z,18.80
2023-02-12T14:21:43.620Z,18.10
2023-02-12T14:25:00.784Z,18.00
2023-02-12T14:27:37.878Z,17.80
2023-02-12T14:30:30.620Z,17.10
2023-02-12T14:33:15.191Z,16.50
2023-02-12T14:35:44.602Z,16.10
2023-02-12T14:39:04.133Z,15.60
2023-02-12T14:41:44.401Z,15.30
2023-02-12T14:44:47.762Z,14.90
2023-02-12T14:47:32.139Z,14.50
2023-02-12T14:50:04.923Z,14.30
2023-02-12T14:52:39.437Z,14.00
2023-02-12T14:55:20.168Z,13.80
2023-02-12T14:57:49.123Z,13.60
2023-02-12T15:00:29.681Z,13.40
2023-02-12T15:03:04.046Z,13.20
2023-02-12T15:05:38.169Z,13.00
2023-02-12T15:08:12.810Z,12.90
2023-02-12T15:10:47.485Z,12.70
2023-02-12T15:13:25.460Z,12.60
2023-02-12T15:16:03.676Z,12.50
2023-02-12T15:18:49.872Z,12.30
2023-02-12T15:21:22.987Z,12.20
2023-02-12T15:24:02.458Z,12.00
2023-02-12T15:26:33.467Z,11.90
2023-02-12T15:29:02.534Z,11.80
2023-02-12T15:31:33.851Z,11.70
2023-02-12T15:34:05.981Z,11.50
2023-02-12T15:36:35.354Z,11.40
2023-02-12T15:39:06.453Z,11.30
2023-02-12T15:41:40.341Z,11.20
2023-02-12T15:44:26.342Z,11.10
2023-02-12T15:46:58.444Z,10.90
2023-02-12T15:49:29.792Z,10.80
2023-02-12T15:51:59.065Z,10.70
2023-02-12T15:54:28.647Z,10.60
2023-02-12T15:56:58.486Z,10.50
2023-02-12T15:59:29.299Z,10.40
2023-02-12T16:02:03.715Z,10.30
2023-02-12T16:04:36.592Z,10.20
2023-02-12T16:07:05.086Z,10.10
2023-02-12T16:13:19.052Z,9.90
2023-02-12T16:15:47.494Z,9.80
2023-02-12T16:18:26.940Z,9.80
2023-02-12T16:21:07.873Z,9.70
2023-02-12T16:23:37.315Z,9.60
2023-02-12T16:26:06.479Z,9.50
2023-02-12T16:28:35.086Z,9.40
2023-02-12T16:31:12.565Z,9.30
2023-02-12T16:33:49.699Z,9.20
2023-02-12T16:36:54.255Z,9.20
2023-02-12T16:40:09.652Z,9.00
2023-02-12T16:42:41.107Z,9.00
2023-02-12T16:45:35.436Z,8.90
2023-02-12T16:48:08.567Z,8.80
2023-02-12T16:57:24.937Z,8.50
2023-02-12T16:59:53.277Z,8.40
2023-02-12T17:02:21.683Z,8.40
2023-02-12T17:04:50.124Z,8.30
2023-02-12T17:07:23.474Z,8.20
2023-02-12T17:09:51.902Z,8.20
2023-02-12T17:12:20.585Z,8.10
2023-02-12T17:14:48.991Z,8.00
2023-02-12T17:17:17.513Z,8.00
2023-02-12T17:19:46.074Z,7.90
2023-02-12T17:22:23.209Z,7.90
2023-02-12T17:24:53.461Z,7.80
2023-02-12T17:27:22.104Z,7.80
2023-02-12T17:29:50.666Z,7.70
2023-02-12T17:32:19.130Z,7.70
2023-02-12T17:34:49.140Z,7.60
2023-02-12T17:37:18.490Z,7.60
2023-02-12T17:39:48.466Z,7.60
2023-02-12T17:42:16.916Z,7.50
2023-02-12T17:44:45.444Z,7.50
2023-02-12T17:47:13.939Z,7.50
2023-02-12T17:49:42.818Z,7.40
2023-02-12T17:52:11.422Z,7.40
2023-02-12T17:54:40.029Z,7.40
2023-02-12T17:57:13.013Z,7.30
2023-02-12T17:59:42.562Z,7.30
2023-02-12T18:02:12.515Z,7.20
2023-02-12T18:04:41.050Z,7.20
2023-02-12T18:07:09.570Z,7.20
2023-02-12T18:09:39.716Z,7.10
2023-02-12T18:12:10.302Z,7.10
2023-02-12T18:14:38.963Z,7.00
2023-02-12T18:17:07.410Z,7.00
2023-02-12T18:19:36.035Z,7.00
2023-02-12T18:22:04.545Z,7.00
2023-02-12T18:24:34.654Z,6.90
2023-02-12T18:27:03.285Z,6.90
2023-02-12T18:29:34.446Z,6.90
2023-02-12T18:32:02.835Z,6.80
2023-02-12T18:34:31.382Z,6.80
2023-02-12T18:37:00.015Z,6.80
2023-02-12T18:39:29.322Z,6.80
2023-02-12T18:41:57.794Z,6.80
2023-02-12T18:44:26.310Z,6.80
2023-02-12T18:46:57.484Z,6.70
2023-02-12T18:49:26.029Z,6.80
2023-02-12T18:51:54.780Z,6.70
2023-02-12T18:54:23.294Z,6.70
2023-02-12T18:56:53.555Z,6.70
2023-02-12T18:59:22.654Z,6.70
2023-02-12T19:01:51.892Z,6.70
2023-02-12T19:04:23.989Z,6.70
2023-02-12T19:06:54.853Z,6.70
2023-02-12T19:09:26.094Z,6.70
2023-02-12T19:11:56.500Z,6.70
2023-02-12T19:14:26.179Z,6.60
2023-02-12T19:16:55.372Z,6.60
2023-02-12T19:19:25.618Z,6.60
2023-02-12T19:21:54.144Z,6.70
2023-02-12T19:24:22.609Z,6.60
2023-02-12T19:26:53.768Z,6.60
2023-02-12T19:29:22.597Z,6.60
2023-02-12T19:31:51.122Z,6.60
2023-02-12T19:34:21.349Z,6.60
2023-02-12T19:36:51.644Z,6.60
2023-02-12T19:39:22.063Z,6.60
2023-02-12T19:41:50.975Z,6.60
2023-02-12T19:44:21.179Z,6.50
2023-02-12T19:46:50.351Z,6.50
2023-02-12T19:49:20.473Z,6.50
2023-02-12T19:51:51.052Z,6.50
2023-02-12T19:54:21.789Z,6.50
2023-02-12T19:56:50.932Z,6.50
2023-02-12T19:59:22.073Z,6.50
2023-02-12T20:01:50.731Z,6.40
2023-02-12T20:04:23.149Z,6.40
2023-02-12T20:06:53.013Z,6.40
2023-02-12T20:09:22.304Z,6.40
2023-02-12T20:11:50.931Z,6.40
2023-02-12T20:14:21.043Z,6.30
2023-02-12T20:16:50.212Z,6.30
2023-02-12T20:19:21.619Z,6.30
2023-02-12T20:21:55.272Z,6.30
2023-02-12T20:24:26.936Z,6.30
2023-02-12T20:26:55.531Z,6.20
2023-02-12T20:29:24.470Z,6.20
2023-02-12T20:31:53.184Z,6.20
2023-02-12T20:34:22.853Z,6.20
2023-02-12T20:36:51.768Z,6.20
2023-02-12T20:39:22.162Z,6.10
2023-02-12T20:41:52.969Z,6.10
2023-02-12T20:44:22.944Z,6.10
2023-02-12T20:46:56.449Z,6.00
2023-02-12T20:49:27.566Z,6.00
2023-02-12T20:51:56.144Z,6.00
2023-02-12T20:54:25.107Z,6.00
2023-02-12T20:56:54.946Z,6.00
2023-02-12T20:59:23.423Z,5.90
2023-02-12T21:01:52.008Z,5.90
2023-02-12T21:04:21.246Z,5.80
2023-02-12T21:06:49.704Z,5.90
2023-02-12T21:09:18.880Z,5.80
2023-02-12T21:11:47.791Z,5.80
2023-02-12T21:14:22.216Z,5.80
2023-02-12T21:16:52.032Z,5.80
2023-02-12T21:19:20.413Z,5.80
2023-02-12T21:21:49.146Z,5.80
2023-02-12T21:24:20.361Z,5.70
2023-02-12T21:26:49.097Z,5.70
2023-02-12T21:29:19.301Z,5.70
2023-02-12T21:31:49.980Z,5.70
2023-02-12T21:34:21.237Z,5.70
2023-02-12T21:36:50.795Z,5.60
2023-02-12T21:39:25.266Z,5.60
2023-02-12T21:41:55.901Z,5.60
2023-02-12T21:44:26.989Z,5.60
2023-02-12T21:46:55.962Z,5.60
2023-02-12T21:49:27.858Z,5.60
2023-02-12T21:51:58.507Z,5.60
2023-02-12T21:54:27.395Z,5.60
2023-02-12T21:56:56.279Z,5.50
2023-02-12T21:59:26.663Z,5.50
2023-02-12T22:01:58.452Z,5.50
2023-02-12T22:04:27.426Z,5.50
2023-02-12T22:06:56.668Z,5.50
2023-02-12T22:09:25.147Z,5.50
2023-02-12T22:11:53.698Z,5.50
2023-02-12T22:14:23.093Z,5.50
2023-02-12T22:16:53.043Z,5.40
2023-02-12T22:19:21.289Z,5.40
2023-02-12T22:21:52.096Z,5.40
2023-02-12T22:24:20.437Z,5.40
2023-02-12T22:26:48.690Z,5.40
2023-02-12T22:29:18.034Z,5.40
2023-02-12T22:31:47.958Z,5.40
2023-02-12T22:34:19.253Z,5.40
2023-02-12T22:36:48.150Z,5.40
2023-02-12T22:39:17.579Z,5.30
2023-02-12T22:41:46.158Z,5.30
2023-02-12T22:44:15.829Z,5.30
2023-02-12T22:46:44.412Z,5.20
2023-02-12T22:49:12.929Z,5.20
2023-02-12T22:51:42.607Z,5.20
2023-02-12T22:54:14.891Z,5.20
2023-02-12T22:56:43.509Z,5.20
2023-02-12T22:59:13.110Z,5.20
2023-02-12T23:01:41.802Z,5.20
2023-02-12T23:04:15.222Z,5.20
2023-02-12T23:06:45.273Z,5.20
2023-02-12T23:09:16.871Z,5.10
2023-02-12T23:11:45.218Z,5.10
2023-02-12T23:14:13.782Z,5.10
2023-02-12T23:16:42.214Z,5.10
2023-02-12T23:19:11.465Z,5.10
2023-02-12T23:21:39.777Z,5.10
2023-02-12T23:24:11.542Z,5.00
2023-02-12T23:26:39.780Z,5.00
2023-02-12T23:29:08.178Z,5.00
2023-02-12T23:31:36.500Z,5.00
2023-02-12T23:34:05.232Z,5.00
2023-02-12T23:36:33.526Z,5.00
2023-02-12T23:39:01.778Z,5.00
2023-02-12T23:41:31.459Z,5.00
2023-02-12T23:43:59.728Z,5.00
2023-02-12T23:46:28.053Z,5.00
2023-02-12T23:48:56.425Z,4.90
2023-02-12T23:51:24.764Z,4.90
2023-02-12T23:53:53.054Z,4.90
2023-02-12T23:56:21.393Z,4.90
2023-02-12T23:58:51.051Z,4.90
